Alaska, Minnesota
Current Conditions -  °F | °C
As of 1:14 PM on Monday 22 Dec 2014 (Local Time) from KBJI Reporting Station
Haze Haze  
Wind Chill: 26°   Ceiling: 400
Heat Index: 35°   Visibility: 4mi
Dew Point: 34°   Wind: 12mph
Humidity: 98%   Direction: 120°ESE
Pressure: 29.56"   Gusts: NA
Location:  47.7369°N, 94.9947°W
Report Text: KBJI 221914Z AUTO 12010KT 4SM BR OVC004 02/01 A2956 RMK AO2 T00150012
Loading
Personal Weather Stations






























Interactive Weather Map New forecast layout! Learn more

10-Day Weather Forecast

Advertisements
Track Severe Weather on mobile